createdAt,value
2022-09-10T00:00:38.533Z,514.30
2022-09-10T00:03:04.985Z,505.23
2022-09-10T00:05:31.419Z,512.00
2022-09-10T00:07:57.848Z,516.03
2022-09-10T00:10:24.304Z,512.53
2022-09-10T00:12:50.735Z,514.60
2022-09-10T00:15:17.152Z,506.47
2022-09-10T00:17:43.773Z,509.03
2022-09-10T00:20:10.190Z,517.20
2022-09-10T00:22:36.638Z,510.30
2022-09-10T00:25:07.623Z,514.70
2022-09-10T00:27:34.718Z,505.07
2022-09-10T00:30:01.143Z,520.57
2022-09-10T00:32:27.574Z,512.13
2022-09-10T00:34:54.006Z,503.33
2022-09-10T00:37:20.440Z,505.00
2022-09-10T00:39:46.875Z,515.80
2022-09-10T00:42:13.341Z,505.10
2022-09-10T00:44:39.767Z,519.53
2022-09-10T00:47:06.211Z,481.33
2022-09-10T00:49:32.655Z,510.10
2022-09-10T00:51:59.094Z,511.33
2022-09-10T00:54:25.510Z,512.50
2022-09-10T00:56:51.945Z,513.53
2022-09-10T00:59:18.375Z,517.87
2022-09-10T01:01:44.865Z,508.80
2022-09-10T01:04:11.309Z,512.97
2022-09-10T01:06:37.761Z,508.73
2022-09-10T01:09:04.195Z,511.70
2022-09-10T01:11:30.643Z,520.40
2022-09-10T01:13:57.076Z,525.93
2022-09-10T01:16:23.656Z,520.77
2022-09-10T01:18:50.142Z,516.80
2022-09-10T01:21:16.593Z,510.50
2022-09-10T01:23:42.995Z,514.13
2022-09-10T01:26:09.444Z,505.50
2022-09-10T01:28:35.867Z,496.20
2022-09-10T01:31:02.286Z,509.03
2022-09-10T01:33:28.701Z,509.63
2022-09-10T01:35:55.159Z,508.77
2022-09-10T01:38:21.609Z,508.63
2022-09-10T01:40:48.057Z,518.40
2022-09-10T01:43:14.483Z,518.73
2022-09-10T01:45:40.930Z,512.13
2022-09-10T01:48:07.353Z,515.63
2022-09-10T01:50:33.774Z,506.30
2022-09-10T01:53:00.184Z,514.67
2022-09-10T01:55:26.613Z,516.23
2022-09-10T01:57:53.060Z,505.57
2022-09-10T02:00:19.496Z,516.50
2022-09-10T02:02:45.928Z,491.67
2022-09-10T02:05:12.348Z,510.43
2022-09-10T02:07:38.790Z,503.60
2022-09-10T02:10:05.222Z,513.53
2022-09-10T02:12:31.656Z,513.73
2022-09-10T02:14:58.122Z,508.27
2022-09-10T02:17:24.554Z,505.43
2022-09-10T02:19:50.974Z,518.90
2022-09-10T02:22:17.408Z,516.57
2022-09-10T02:24:43.823Z,515.73
2022-09-10T02:27:10.252Z,495.53
2022-09-10T02:29:36.693Z,516.00
2022-09-10T02:32:03.137Z,518.03
2022-09-10T02:34:29.559Z,520.30
2022-09-10T02:36:56.017Z,503.73
2022-09-10T02:39:22.431Z,510.67
2022-09-10T02:41:48.866Z,514.03
2022-09-10T02:44:15.280Z,514.13
2022-09-10T02:46:41.709Z,506.70
2022-09-10T02:49:08.153Z,512.87
2022-09-10T02:51:34.588Z,516.63
2022-09-10T02:54:01.036Z,515.83
2022-09-10T02:56:27.571Z,503.90
2022-09-10T02:58:54.028Z,507.60
2022-09-10T03:01:20.531Z,504.83
2022-09-10T03:03:46.982Z,516.83
2022-09-10T03:06:13.421Z,511.43
2022-09-10T03:08:39.948Z,505.63
2022-09-10T03:11:06.593Z,512.33
2022-09-10T03:13:32.988Z,516.07
2022-09-10T03:15:59.461Z,509.63
2022-09-10T03:18:25.953Z,506.03
2022-09-10T03:20:52.414Z,511.60
2022-09-10T03:23:18.854Z,502.23
2022-09-10T03:25:49.513Z,504.57
2022-09-10T03:28:16.307Z,499.80
2022-09-10T03:30:42.751Z,494.20
2022-09-10T03:33:09.179Z,501.80
2022-09-10T03:35:35.585Z,495.20
2022-09-10T03:38:02.027Z,502.27
2022-09-10T03:40:28.420Z,493.33
2022-09-10T03:42:54.842Z,501.40
2022-09-10T03:45:21.319Z,505.47
2022-09-10T03:47:47.768Z,505.33
2022-09-10T03:50:14.204Z,509.43
2022-09-10T03:52:40.650Z,503.30
2022-09-10T03:55:07.061Z,508.83
2022-09-10T03:57:33.668Z,498.77
2022-09-10T04:00:02.252Z,498.47
2022-09-10T04:02:28.781Z,505.40
2022-09-10T04:04:55.196Z,509.33
2022-09-10T04:07:21.607Z,508.60
2022-09-10T04:09:48.063Z,495.83
2022-09-10T04:12:14.497Z,505.70
2022-09-10T04:14:40.920Z,507.87
2022-09-10T04:17:07.418Z,503.50
2022-09-10T04:19:33.860Z,503.03
2022-09-10T04:22:00.312Z,497.37
2022-09-10T04:24:26.745Z,494.63
2022-09-10T04:26:53.201Z,494.43
2022-09-10T04:29:19.633Z,505.13
2022-09-10T04:31:46.119Z,498.00
2022-09-10T04:34:12.607Z,502.30
2022-09-10T04:36:39.020Z,515.23
2022-09-10T04:39:05.410Z,499.93
2022-09-10T04:41:31.848Z,486.07
2022-09-10T04:43:58.284Z,497.13
2022-09-10T04:46:24.715Z,506.60
2022-09-10T04:48:51.111Z,518.33
2022-09-10T04:51:18.275Z,505.63
2022-09-10T04:53:44.875Z,503.63
2022-09-10T04:56:11.361Z,501.27
2022-09-10T04:58:39.123Z,497.10
2022-09-10T05:01:05.991Z,503.53
2022-09-10T05:03:32.501Z,499.80
2022-09-10T05:05:58.936Z,497.90
2022-09-10T05:08:25.376Z,511.33
2022-09-10T05:10:51.774Z,503.57
2022-09-10T05:13:18.202Z,504.43
2022-09-10T05:15:44.607Z,509.40
2022-09-10T05:18:11.093Z,508.10
2022-09-10T05:20:37.499Z,507.77
2022-09-10T05:23:03.928Z,509.93
2022-09-10T05:25:30.363Z,504.37
2022-09-10T05:27:56.785Z,485.20
2022-09-10T05:30:23.202Z,502.77
2022-09-10T05:32:49.632Z,497.63
2022-09-10T05:35:16.031Z,507.10
2022-09-10T05:37:42.463Z,500.93
2022-09-10T05:40:08.872Z,505.10
2022-09-10T05:42:35.363Z,498.70
2022-09-10T05:45:01.798Z,505.73
2022-09-10T05:47:28.234Z,504.23
2022-09-10T05:49:54.662Z,502.33
2022-09-10T05:52:21.099Z,505.20
2022-09-10T05:54:47.504Z,505.03
2022-09-10T05:57:14.013Z,498.20
2022-09-10T05:59:40.443Z,518.93
2022-09-10T06:02:06.959Z,502.50
2022-09-10T06:04:33.468Z,514.67
2022-09-10T06:06:59.905Z,504.57
2022-09-10T06:09:26.297Z,515.33
2022-09-10T06:11:52.737Z,513.87
2022-09-10T06:14:19.152Z,503.13
2022-09-10T06:16:45.696Z,517.43
2022-09-10T06:19:12.161Z,513.40
2022-09-10T06:21:38.600Z,504.30
2022-09-10T06:24:05.035Z,512.77
2022-09-10T06:26:31.472Z,504.00
2022-09-10T06:28:57.900Z,510.40
2022-09-10T06:31:24.318Z,502.13
2022-09-10T06:33:50.731Z,522.77
2022-09-10T06:36:17.149Z,506.13
2022-09-10T06:38:43.546Z,512.47
2022-09-10T06:41:09.977Z,501.20
2022-09-10T06:43:36.401Z,500.70
2022-09-10T06:46:02.879Z,513.30
2022-09-10T06:48:48.079Z,490.43
2022-09-10T06:51:14.695Z,505.03
2022-09-10T06:53:41.093Z,508.53
2022-09-10T06:56:07.528Z,505.53
2022-09-10T06:58:34.124Z,493.27
2022-09-10T07:01:00.598Z,504.33
2022-09-10T07:03:26.998Z,517.70
2022-09-10T07:05:53.434Z,511.33
2022-09-10T07:08:19.854Z,517.73
2022-09-10T07:10:46.259Z,515.53
2022-09-10T07:13:12.653Z,506.67
2022-09-10T07:15:39.168Z,510.63
2022-09-10T07:18:05.592Z,503.90
2022-09-10T07:20:32.003Z,507.70
2022-09-10T07:22:58.413Z,515.63
2022-09-10T07:25:25.202Z,495.97
2022-09-10T07:27:51.636Z,504.90
2022-09-10T07:30:18.077Z,516.23
2022-09-10T07:32:44.505Z,514.93
2022-09-10T07:35:10.975Z,518.20
2022-09-10T07:37:37.400Z,514.60
2022-09-10T07:40:03.863Z,512.47
2022-09-10T07:42:30.304Z,512.50
2022-09-10T07:44:56.706Z,501.20
2022-09-10T07:47:23.183Z,503.93
2022-09-10T07:49:49.601Z,513.33
2022-09-10T07:52:16.031Z,514.57
2022-09-10T07:54:42.453Z,514.57
2022-09-10T07:57:08.899Z,501.40
2022-09-10T07:59:35.331Z,503.07
2022-09-10T08:02:01.869Z,503.63
2022-09-10T08:04:28.311Z,510.67
2022-09-10T08:06:54.718Z,488.57
2022-09-10T08:09:21.098Z,508.60
2022-09-10T08:11:47.540Z,502.77
2022-09-10T08:14:14.009Z,527.63
2022-09-10T08:16:44.288Z,492.90
2022-09-10T08:19:10.994Z,521.00
2022-09-10T08:21:37.387Z,518.87
2022-09-10T08:24:03.831Z,506.63
2022-09-10T08:26:30.257Z,521.63
2022-09-10T08:28:56.668Z,511.50
2022-09-10T08:31:23.152Z,511.13
2022-09-10T08:33:49.601Z,508.17
2022-09-10T08:36:16.034Z,517.03
2022-09-10T08:38:42.456Z,513.67
2022-09-10T08:41:08.877Z,518.90
2022-09-10T08:43:35.277Z,509.70
2022-09-10T08:46:01.723Z,515.70
2022-09-10T08:48:28.171Z,497.07
2022-09-10T08:50:54.581Z,515.93
2022-09-10T08:53:20.987Z,510.70
2022-09-10T08:55:49.002Z,510.30
2022-09-10T08:58:15.546Z,508.53
2022-09-10T09:00:41.964Z,506.20
2022-09-10T09:03:08.412Z,508.00
2022-09-10T09:05:34.871Z,493.13
2022-09-10T09:08:01.392Z,508.93
2022-09-10T09:10:27.828Z,510.43
2022-09-10T09:12:54.236Z,514.43
2022-09-10T09:15:20.680Z,509.87
2022-09-10T09:17:47.082Z,511.83
2022-09-10T09:20:13.572Z,498.67
2022-09-10T09:22:40.214Z,520.03
2022-09-10T09:25:06.655Z,521.30
2022-09-10T09:27:33.070Z,509.80
2022-09-10T09:29:59.457Z,508.90
2022-09-10T09:32:25.870Z,515.93
2022-09-10T09:34:52.326Z,495.73
2022-09-10T09:37:18.832Z,511.83
2022-09-10T09:39:45.278Z,516.73
2022-09-10T09:42:11.732Z,518.57
2022-09-10T09:44:38.359Z,509.20
2022-09-10T09:47:04.812Z,517.87
2022-09-10T09:49:31.209Z,519.07
2022-09-10T09:51:57.638Z,510.60
2022-09-10T09:55:10.273Z,509.90
2022-09-10T09:57:10.402Z,511.67
2022-09-10T09:59:36.838Z,512.23
2022-09-10T10:02:03.301Z,507.83
2022-09-10T10:04:29.769Z,509.73
2022-09-10T10:06:56.239Z,505.93
2022-09-10T10:09:22.698Z,508.90
2022-09-10T10:11:49.113Z,507.03
2022-09-10T10:14:15.503Z,505.63
2022-09-10T10:16:41.933Z,514.87
2022-09-10T10:19:08.329Z,529.07
2022-09-10T10:21:34.797Z,520.33
2022-09-10T10:24:01.195Z,513.10
2022-09-10T10:26:27.612Z,519.07
2022-09-10T10:28:54.063Z,510.43
2022-09-10T10:31:20.544Z,518.30
2022-09-10T10:33:47.004Z,496.67
2022-09-10T10:36:13.408Z,514.93
2022-09-10T10:38:39.952Z,510.20
2022-09-10T10:41:06.442Z,516.37
2022-09-10T10:43:32.898Z,507.10
2022-09-10T10:45:59.417Z,514.50
2022-09-10T10:48:25.885Z,516.93
2022-09-10T10:50:53.022Z,511.33
2022-09-10T10:53:19.629Z,512.73
2022-09-10T10:55:46.075Z,517.07
2022-09-10T10:58:12.464Z,510.13
2022-09-10T11:00:38.870Z,508.40
2022-09-10T11:03:05.294Z,512.70
2022-09-10T11:05:31.738Z,511.33
2022-09-10T11:07:58.183Z,506.77
2022-09-10T11:10:24.716Z,509.93
2022-09-10T11:12:51.120Z,518.33
2022-09-10T11:15:17.555Z,517.20
2022-09-10T11:17:43.980Z,512.90
2022-09-10T11:20:27.994Z,514.47
2022-09-10T11:22:55.171Z,505.63
2022-09-10T11:25:21.632Z,520.30
2022-09-10T11:27:48.078Z,508.80
2022-09-10T11:30:14.508Z,514.70
2022-09-10T11:32:40.913Z,519.20
2022-09-10T11:35:07.387Z,508.50
2022-09-10T11:37:33.815Z,507.13
2022-09-10T11:40:00.275Z,513.07
2022-09-10T11:42:26.754Z,517.40
2022-09-10T11:44:53.186Z,504.73
2022-09-10T11:47:19.641Z,505.93
2022-09-10T11:49:46.030Z,499.90
2022-09-10T11:52:12.472Z,512.13
2022-09-10T11:54:38.926Z,503.73
2022-09-10T11:57:05.428Z,508.50
2022-09-10T11:59:31.928Z,512.07
2022-09-10T12:01:58.359Z,504.63
2022-09-10T12:04:24.776Z,504.50
2022-09-10T12:06:51.186Z,503.60
2022-09-10T12:09:17.610Z,512.03
2022-09-10T12:11:44.044Z,495.67
2022-09-10T12:14:10.457Z,502.23
2022-09-10T12:16:36.886Z,518.37
2022-09-10T12:19:03.305Z,519.63
2022-09-10T12:21:29.738Z,511.40
2022-09-10T12:23:56.149Z,505.47
2022-09-10T12:26:22.619Z,510.30
2022-09-10T12:28:49.060Z,495.30
2022-09-10T12:31:15.539Z,501.07
2022-09-10T12:33:42.045Z,511.13
2022-09-10T12:36:08.504Z,505.33
2022-09-10T12:38:34.915Z,510.53
2022-09-10T12:41:01.346Z,511.87
2022-09-10T12:43:27.725Z,512.67
2022-09-10T12:45:54.181Z,506.43
2022-09-10T12:48:25.097Z,511.00
2022-09-10T12:50:53.305Z,492.03
2022-09-10T12:53:19.724Z,511.43
2022-09-10T12:55:46.131Z,511.03
2022-09-10T12:58:12.551Z,509.50
2022-09-10T13:00:38.972Z,522.37
2022-09-10T13:03:05.385Z,517.20
2022-09-10T13:05:31.788Z,502.03
2022-09-10T13:07:58.227Z,473.80
2022-09-10T13:10:24.648Z,446.87
2022-09-10T13:12:51.086Z,450.23
2022-09-10T13:15:17.489Z,442.10
2022-09-10T13:17:43.906Z,436.17
2022-09-10T13:20:10.308Z,408.40
2022-09-10T13:22:36.715Z,426.60
2022-09-10T13:25:03.188Z,422.17
2022-09-10T13:27:29.618Z,408.70
2022-09-10T13:29:56.039Z,412.20
2022-09-10T13:32:22.455Z,408.87
2022-09-10T13:34:48.835Z,405.53
2022-09-10T13:37:15.258Z,413.27
2022-09-10T13:39:41.682Z,393.67
2022-09-10T13:42:08.120Z,411.83
2022-09-10T13:44:34.521Z,399.60
2022-09-10T13:47:00.942Z,398.40
2022-09-10T13:49:27.355Z,391.33
2022-09-10T13:51:53.779Z,362.00
2022-09-10T13:54:20.248Z,386.60
2022-09-10T13:56:46.715Z,367.30
2022-09-10T13:59:13.111Z,394.97
2022-09-10T14:01:39.525Z,367.90
2022-09-10T14:04:05.931Z,380.97
2022-09-10T14:06:32.338Z,390.67
2022-09-10T14:08:58.739Z,350.17
2022-09-10T14:11:25.221Z,365.07
2022-09-10T14:13:51.670Z,351.77
2022-09-10T14:16:18.115Z,366.90
2022-09-10T14:18:44.502Z,363.27
2022-09-10T14:21:10.937Z,318.37
2022-09-10T14:23:38.497Z,325.93
2022-09-10T14:26:04.952Z,332.87
2022-09-10T14:28:31.374Z,307.67
2022-09-10T14:30:57.898Z,309.53
2022-09-10T14:33:24.351Z,323.27
2022-09-10T14:35:50.772Z,343.97
2022-09-10T14:38:17.164Z,336.97
2022-09-10T14:40:43.578Z,318.87
2022-09-10T14:43:09.975Z,303.37
2022-09-10T14:45:36.419Z,317.50
2022-09-10T14:48:02.834Z,326.47
2022-09-10T14:50:29.266Z,324.13
2022-09-10T14:52:55.678Z,328.87
2022-09-10T14:55:22.103Z,326.67
2022-09-10T14:57:48.523Z,348.27
2022-09-10T15:00:14.954Z,344.17
2022-09-10T15:02:41.369Z,298.87
2022-09-10T15:05:07.823Z,317.87
2022-09-10T15:07:34.322Z,336.17
2022-09-10T15:10:00.737Z,347.93
2022-09-10T15:12:27.173Z,348.10
2022-09-10T15:14:53.605Z,353.53
2022-09-10T15:17:20.050Z,332.97
2022-09-10T15:19:46.454Z,349.77
2022-09-10T15:22:12.882Z,352.80
2022-09-10T15:25:05.592Z,343.03
2022-09-10T15:27:25.710Z,364.60
2022-09-10T15:29:52.151Z,372.60
2022-09-10T15:32:18.559Z,364.07
2022-09-10T15:34:44.972Z,380.00
2022-09-10T15:37:11.390Z,365.93
2022-09-10T15:39:37.939Z,346.17
2022-09-10T15:42:04.418Z,357.77
2022-09-10T15:44:30.819Z,362.17
2022-09-10T15:46:57.235Z,371.73
2022-09-10T15:49:23.654Z,404.70
2022-09-10T15:51:50.077Z,399.63
2022-09-10T15:54:16.689Z,393.97
2022-09-10T15:56:43.127Z,378.67
2022-09-10T15:59:09.557Z,406.63
2022-09-10T16:01:36.203Z,433.80
2022-09-10T16:04:04.640Z,440.83
2022-09-10T16:06:31.049Z,465.83
2022-09-10T16:08:57.515Z,478.97
2022-09-10T16:11:23.919Z,484.40
2022-09-10T16:13:50.300Z,480.80
2022-09-10T16:16:16.739Z,500.07
2022-09-10T16:18:43.191Z,505.47
2022-09-10T16:21:09.634Z,503.60
2022-09-10T16:23:36.032Z,513.17
2022-09-10T16:26:02.467Z,507.63
2022-09-10T16:28:28.863Z,521.13
2022-09-10T16:30:55.309Z,507.83
2022-09-10T16:33:21.726Z,518.90
2022-09-10T16:35:48.149Z,518.97
2022-09-10T16:38:14.574Z,516.80
2022-09-10T16:40:40.976Z,515.87
2022-09-10T16:43:07.452Z,506.47
2022-09-10T16:45:33.876Z,513.90
2022-09-10T16:48:04.126Z,518.10
2022-09-10T16:50:30.924Z,510.23
2022-09-10T16:52:57.333Z,512.63
2022-09-10T16:55:23.759Z,523.40
2022-09-10T16:57:50.147Z,520.83
2022-09-10T17:00:16.563Z,509.13
2022-09-10T17:02:43.041Z,495.63
2022-09-10T17:05:09.506Z,524.33
2022-09-10T17:07:35.919Z,513.23
2022-09-10T17:10:02.332Z,520.40
2022-09-10T17:12:28.741Z,509.43
2022-09-10T17:14:55.169Z,514.07
2022-09-10T17:17:21.599Z,512.33
2022-09-10T17:19:47.984Z,514.50
2022-09-10T17:22:14.420Z,519.30
2022-09-10T17:24:41.894Z,517.70
2022-09-10T17:27:08.315Z,515.67
2022-09-10T17:29:34.735Z,511.60
2022-09-10T17:32:01.172Z,513.40
2022-09-10T17:34:27.594Z,527.17
2022-09-10T17:36:54.020Z,523.37
2022-09-10T17:39:20.433Z,516.13
2022-09-10T17:41:46.859Z,523.90
2022-09-10T17:44:13.265Z,525.03
2022-09-10T17:46:39.731Z,522.67
2022-09-10T17:49:06.175Z,525.73
2022-09-10T17:51:32.587Z,523.13
2022-09-10T17:53:58.980Z,524.03
2022-09-10T17:56:25.419Z,516.73
2022-09-10T17:58:51.827Z,521.53
2022-09-10T18:01:22.503Z,517.80
2022-09-10T18:03:49.645Z,517.47
2022-09-10T18:06:16.056Z,510.03
2022-09-10T18:08:42.482Z,514.73
2022-09-10T18:11:08.916Z,522.90
2022-09-10T18:13:35.367Z,521.77
2022-09-10T18:16:01.829Z,520.30
2022-09-10T18:18:28.295Z,504.87
2022-09-10T18:20:54.713Z,508.90
2022-09-10T18:23:21.101Z,521.47
2022-09-10T18:25:49.908Z,516.00
2022-09-10T18:28:16.553Z,524.83
2022-09-10T18:30:42.946Z,517.63
2022-09-10T18:33:09.376Z,518.50
2022-09-10T18:35:35.788Z,518.00
2022-09-10T18:38:02.208Z,522.20
2022-09-10T18:40:28.626Z,516.20
2022-09-10T18:42:55.055Z,512.70
2022-09-10T18:45:21.495Z,506.57
2022-09-10T18:47:47.907Z,522.27
2022-09-10T18:50:14.325Z,501.53
2022-09-10T18:52:40.745Z,522.43
2022-09-10T18:55:07.167Z,524.13
2022-09-10T18:57:33.562Z,521.60
2022-09-10T18:59:59.973Z,518.53
2022-09-10T19:02:26.513Z,503.27
2022-09-10T19:05:11.578Z,505.93
2022-09-10T19:07:38.564Z,504.73
2022-09-10T19:10:05.033Z,507.53
2022-09-10T19:12:31.426Z,510.33
2022-09-10T19:14:57.837Z,517.27
2022-09-10T19:17:24.241Z,518.30
2022-09-10T19:19:50.650Z,510.80
2022-09-10T19:22:17.036Z,513.03
2022-09-10T19:24:54.654Z,519.90
2022-09-10T19:27:21.927Z,516.67
2022-09-10T19:29:48.334Z,508.73
2022-09-10T19:32:14.733Z,518.43
2022-09-10T19:34:41.158Z,511.90
2022-09-10T19:37:07.538Z,496.70
2022-09-10T19:39:33.985Z,489.63
2022-09-10T19:42:00.411Z,517.03
2022-09-10T19:44:26.811Z,522.53
2022-09-10T19:46:53.209Z,519.10
2022-09-10T19:49:19.629Z,517.43
2022-09-10T19:51:46.063Z,511.13
2022-09-10T19:54:12.653Z,514.40
2022-09-10T19:56:39.046Z,524.67
2022-09-10T19:59:05.459Z,492.23
2022-09-10T20:01:31.937Z,522.43
2022-09-10T20:03:58.364Z,523.80
2022-09-10T20:06:24.783Z,523.33
2022-09-10T20:08:51.164Z,504.20
2022-09-10T20:11:17.585Z,521.10
2022-09-10T20:13:43.979Z,502.60
2022-09-10T20:16:10.453Z,514.27
2022-09-10T20:18:36.984Z,524.90
2022-09-10T20:21:03.473Z,498.77
2022-09-10T20:23:29.866Z,522.30
2022-09-10T20:25:56.307Z,512.33
2022-09-10T20:28:22.706Z,510.40
2022-09-10T20:30:49.136Z,521.33
2022-09-10T20:33:15.551Z,516.77
2022-09-10T20:35:41.968Z,511.53
2022-09-10T20:38:08.388Z,514.30
2022-09-10T20:40:34.816Z,511.37
2022-09-10T20:43:01.216Z,514.20
2022-09-10T20:45:27.611Z,508.57
2022-09-10T20:47:54.017Z,515.77
2022-09-10T20:50:20.491Z,507.10
2022-09-10T20:52:46.900Z,507.67
2022-09-10T20:55:13.322Z,508.50
2022-09-10T20:57:39.728Z,513.13
2022-09-10T21:00:06.355Z,494.10
2022-09-10T21:02:32.958Z,513.90
2022-09-10T21:04:59.474Z,502.53
2022-09-10T21:07:25.863Z,517.33
2022-09-10T21:09:52.253Z,513.83
2022-09-10T21:12:18.660Z,520.60
2022-09-10T21:14:45.081Z,510.13
2022-09-10T21:17:11.480Z,524.73
2022-09-10T21:19:37.914Z,521.07
2022-09-10T21:22:04.311Z,519.93
2022-09-10T21:24:30.730Z,515.10
2022-09-10T21:26:57.141Z,514.73
2022-09-10T21:29:23.589Z,524.87
2022-09-10T21:31:50.052Z,513.63
2022-09-10T21:34:16.469Z,512.30
2022-09-10T21:36:42.867Z,508.43
2022-09-10T21:39:09.302Z,510.50
2022-09-10T21:41:35.707Z,519.03
2022-09-10T21:44:02.121Z,516.03
2022-09-10T21:46:28.676Z,519.73
2022-09-10T21:48:55.358Z,509.70
2022-09-10T21:51:21.798Z,514.00
2022-09-10T21:53:48.213Z,520.53
2022-09-10T21:56:16.703Z,518.53
2022-09-10T21:58:43.128Z,509.93
2022-09-10T22:01:09.564Z,514.50
2022-09-10T22:03:35.994Z,497.70
2022-09-10T22:06:02.427Z,510.00
2022-09-10T22:08:28.835Z,519.93
2022-09-10T22:10:55.280Z,513.33
2022-09-10T22:13:21.680Z,518.13
2022-09-10T22:15:48.140Z,518.53
2022-09-10T22:18:14.590Z,509.33
2022-09-10T22:20:41.025Z,513.67
2022-09-10T22:23:07.457Z,509.93
2022-09-10T22:25:33.890Z,509.60
2022-09-10T22:28:00.318Z,514.30
2022-09-10T22:30:26.758Z,513.50
2022-09-10T22:32:53.169Z,517.47
2022-09-10T22:35:19.599Z,500.53
2022-09-10T22:37:46.000Z,510.73
2022-09-10T22:40:12.453Z,508.13
2022-09-10T22:42:38.898Z,517.80
2022-09-10T22:45:05.333Z,520.23
2022-09-10T22:47:31.741Z,503.90
2022-09-10T22:49:58.319Z,525.17
2022-09-10T22:52:24.734Z,524.27
2022-09-10T22:54:51.144Z,525.93
2022-09-10T22:57:17.552Z,513.13
2022-09-10T22:59:43.966Z,495.07
2022-09-10T23:02:10.388Z,517.20
2022-09-10T23:04:36.823Z,517.37
2022-09-10T23:07:03.217Z,518.23
2022-09-10T23:09:29.633Z,519.40
2022-09-10T23:11:56.049Z,516.27
2022-09-10T23:14:22.452Z,520.03
2022-09-10T23:16:48.849Z,518.93
2022-09-10T23:19:15.254Z,509.80
2022-09-10T23:21:41.659Z,511.33
2022-09-10T23:24:08.111Z,512.40
2022-09-10T23:26:34.526Z,514.03
2022-09-10T23:29:00.929Z,516.00
2022-09-10T23:31:27.384Z,514.47
2022-09-10T23:33:53.926Z,507.03
2022-09-10T23:36:20.348Z,513.20
2022-09-10T23:38:46.745Z,499.70
2022-09-10T23:41:13.155Z,497.50
2022-09-10T23:43:39.641Z,523.93
2022-09-10T23:46:06.117Z,509.20
2022-09-10T23:48:32.539Z,511.13
2022-09-10T23:50:58.967Z,518.63
2022-09-10T23:53:25.382Z,517.63
2022-09-10T23:55:51.822Z,520.60
2022-09-10T23:58:18.225Z,514.53
